Las horas y fechas están en horario UTC
Sumar 1 hora en el horario de invierno y 2 en el de verano

Informes METAR cercanos

 

LEZL - Sevilla (civ/Mil, Spain
Distance from station: NNE 24km
Actualización: 16/08/2018 04:30
Muy nuboso
Muy nuboso
 Viento del SO
Viento: SO 11 km/h
Temperatura: 21°C
Rocío: 17°C
Humedad: 78%
Barómetro: 1017 hPa
Clouds: Muy nuboso
Visibility: 10 km
Cloud details: Muy nuboso 457 m
2018/08/16 02:30 LEZL 160230Z 23006KT 190V260 9999 BKN015 21/17 Q1017 NOSIG
LEMO - Moron (sp-Usafb), Spain
Distance from station: E 38km
Actualización: 15/08/2018 15:00
NOT Current
Despejado
Despejado
 Viento del varies
Viento: varies 11 km/h, Racha: 30 km/h
Temperatura: 31°C
Heat Index: 31°C
Rocío: 16°C
Humedad: 40%
Barómetro: 1016 hPa
Resumen: Despejado
Visibility: greater than 10 km
2018/08/15 13:00 LEMO 151300Z VRB06G16KT CAVOK 31/16 Q1016 NOSIG
LEJR - Jerez (civ/Mil), Spain
Distance from station: S 53km
Actualización: 16/08/2018 04:30
Cubierto
Cubierto
 Viento del SE
Viento: SE 6 km/h
Temperatura: 20°C
Rocío: 17°C
Humedad: 83%
Barómetro: 1016 hPa
Clouds: Cubierto
Visibility: 10 km
Cloud details: Cubierto 701 m
2018/08/16 02:30 LEJR 160230Z AUTO 14003KT 090V200 9999 OVC023/// 20/17 Q1016
 
LERT - Rota Naval Stati, Spain
Distance from station: SSO 71km
Actualización: 16/08/2018 04:00
Muy nuboso
Muy nuboso
 Viento del SSO
Viento: SSO 15 km/h
Temperatura: 21°C
Rocío: 17°C
Humedad: 78%
Barómetro: 1016 hPa
Clouds: Muy nuboso
Visibility: 10 km
Cloud details: Muy nuboso 610 m
2018/08/16 02:00 LERT 160200Z 21008KT 180V240 9999 BKN020 21/17 Q1016 NOSIG
LEBA - Cordoba Airport, Spain
Distance from station: ENE 128km
Actualización: 16/08/2018 04:30
Despejado
Despejado
 Viento del OSO
Viento: OSO 15 km/h
Temperatura: 21°C
Rocío: 15°C
Humedad: 69%
Barómetro: 1016 hPa
Clouds: Despejado
Visibility: 10 km
2018/08/16 02:30 LEBA 160230Z AUTO 24008KT 210V280 9999 NCD 21/15 Q1016
LXGB - Gibraltar (civ/M, Gibraltar
Distance from station: SSE 137km
Actualización: 16/08/2018 03:50
Despejado
Despejado
 Viento del O
Viento: O 17 km/h
Temperatura: 20°C
Rocío: 17°C
Humedad: 83%
Barómetro: 1016 hPa
Clouds: Despejado
Visibility: 10 km
2018/08/16 01:50 LXGB 160150Z AUTO 26009KT 9999 // NCD 20/17 Q1016
 
LEMG - Malaga (civ/Mil), Spain
Distance from station: ESE 150km
Actualización: 16/08/2018 04:30
Parcialmente nuboso
Parcialmente nuboso
 Viento del SSO
Viento: SSO 2 km/h
Temperatura: 25°C
Rocío: 22°C
Humedad: 83%
Barómetro: 1015 hPa
Clouds: Parcialmente nuboso
Visibility: 10 km
Cloud details: Few Clouds 457 m
Parcialmente nuboso 1067 m
2018/08/16 02:30 LEMG 160230Z 21001KT 9999 FEW015 SCT035 25/22 Q1015 NOSIG
GMTT - Tangier/Boukhalf, Morocco
Distance from station: S 169km
Actualización: 16/08/2018 04:30
Muy nuboso
Muy nuboso
 Viento del SSO
Viento: SSO 11 km/h
Temperatura: 21°C
Rocío: 15°C
Humedad: 69%
Barómetro: 1017 hPa
Clouds: Muy nuboso
Visibility: 10 km
Cloud details: Few Clouds 488 m
Muy nuboso 701 m
2018/08/16 02:30 GMTT 160230Z 20006KT 9999 FEW016 BKN023 21/15 Q1017 NOSIG
LPFR - Faro, Portugal
Distance from station: O 172km
Actualización: 16/08/2018 04:30
Despejado
Despejado
 Viento del NE
Viento: NE 11 km/h
Temperatura: 20°C
Rocío: 19°C
Humedad: 94%
Barómetro: 1015 hPa
Resumen: Despejado
Visibility: greater than 10 km
2018/08/16 02:30 LPFR 160230Z 04006KT CAVOK 20/19 Q1015
 
LPBJ - Beja (por/Ger-Af, Portugal
Distance from station: ONO 192km
Actualización: 16/08/2018 04:00
Despejado
Despejado
 Viento del ONO
Viento: ONO 6 km/h
Temperatura: 17°C
Rocío: 15°C
Humedad: 88%
Barómetro: 1016 hPa
Resumen: Despejado
Visibility: greater than 10 km
2018/08/16 02:00 LPBJ 160200Z 29003KT CAVOK 17/15 Q1016
LEBZ - Talavera Ab/Bada, Spain
Distance from station: NNO 194km
Actualización: 15/08/2018 21:00
NOT Current
Despejado
Despejado
 Viento del SO
Viento: SO 13 km/h
Temperatura: 33°C
Rocío: 10°C
Humedad: 24%
Barómetro: 1013 hPa
Resumen: Despejado
Visibility: greater than 10 km
2018/08/15 19:00 LEBZ 151900Z 23007KT CAVOK 33/10 Q1013
LEMD - Madrid/Barajas, Spain
Distance from station: NE 415km
Actualización: 16/08/2018 04:30
Despejado
Despejado
 Viento del N
Viento: N 6 km/h
Temperatura: 25°C
Rocío: 18°C
Humedad: 65%
Barómetro: 1016 hPa
Resumen: Despejado
Visibility: greater than 10 km
2018/08/16 02:30 LEMD 160230Z 36003KT CAVOK 25/18 Q1016 NOSIG